East Falmouth, Massachusetts
Current Conditions -  °F | °C
As of 5:55 PM on Thursday 18 Dec 2014 (Local Time) from KFMH Reporting Station
Overcast Overcast  
Wind Chill: 33°   Ceiling: 3400
Heat Index: 39°   Visibility: 10mi
Dew Point: 28°   Wind: 9mph
Humidity: 65%   Direction: 280°W
Pressure: 29.83"   Gusts: 18mph
Location:  41.58°N, 70.56°W
Report Text: KFMH 182255Z AUTO 28008G16KT 10SM OVC034 04/M02 A2983 RMK AO2
Loading
Personal Weather Stations






























Interactive Weather Map New forecast layout! Learn more

10-Day Weather Forecast

Advertisements
Track Severe Weather on mobile